createdAt,value
2022-08-06T00:00:38.883Z,5.80
2022-08-06T00:03:51.215Z,6.20
2022-08-06T00:06:58.683Z,6.60
2022-08-06T00:10:05.792Z,5.30
2022-08-06T00:13:14.415Z,6.27
2022-08-06T00:16:36.435Z,5.10
2022-08-06T00:19:58.075Z,5.20
2022-08-06T00:23:08.207Z,5.60
2022-08-06T00:26:22.846Z,5.03
2022-08-06T00:29:43.951Z,6.30
2022-08-06T00:32:53.631Z,5.67
2022-08-06T00:35:59.964Z,6.30
2022-08-06T00:39:09.584Z,13.00
2022-08-06T00:42:19.214Z,5.87
2022-08-06T00:45:26.011Z,6.73
2022-08-06T00:48:52.753Z,6.40
2022-08-06T00:51:58.759Z,5.33
2022-08-06T00:55:17.338Z,5.70
2022-08-06T00:58:24.414Z,6.23
2022-08-06T01:01:49.847Z,5.47
2022-08-06T01:05:06.877Z,5.80
2022-08-06T01:08:22.912Z,6.33
2022-08-06T01:11:32.080Z,5.53
2022-08-06T01:14:41.064Z,6.07
2022-08-06T01:17:59.782Z,6.53
2022-08-06T01:22:29.460Z,6.27
2022-08-06T01:25:01.419Z,10.80
2022-08-06T01:28:15.227Z,5.70
2022-08-06T01:31:38.612Z,5.60
2022-08-06T01:34:53.264Z,6.03
2022-08-06T01:38:04.696Z,6.63
2022-08-06T01:41:35.280Z,6.23
2022-08-06T01:45:04.903Z,6.63
2022-08-06T01:48:14.905Z,5.80
2022-08-06T01:52:14.125Z,5.97
2022-08-06T01:54:53.625Z,5.10
2022-08-06T01:58:07.527Z,6.03
2022-08-06T02:01:29.006Z,11.57
2022-08-06T02:05:00.001Z,5.80
2022-08-06T02:08:36.353Z,5.57
2022-08-06T02:12:03.646Z,5.50
2022-08-06T02:15:15.784Z,10.10
2022-08-06T02:18:35.434Z,7.10
2022-08-06T02:21:50.318Z,5.47
2022-08-06T02:25:14.432Z,5.57
2022-08-06T02:28:25.676Z,5.87
2022-08-06T02:31:38.598Z,5.80
2022-08-06T02:34:55.752Z,6.27
2022-08-06T02:38:10.670Z,10.93
2022-08-06T02:41:22.986Z,4.97
2022-08-06T02:44:45.579Z,5.70
2022-08-06T02:48:01.850Z,5.87
2022-08-06T02:51:43.736Z,6.13
2022-08-06T02:54:47.632Z,6.57
2022-08-06T02:58:00.204Z,5.20
2022-08-06T03:01:12.163Z,12.13
2022-08-06T03:04:32.451Z,5.87
2022-08-06T03:07:42.480Z,5.27
2022-08-06T03:10:49.790Z,6.10
2022-08-06T03:13:57.533Z,6.23
2022-08-06T03:17:04.668Z,6.43
2022-08-06T03:20:16.464Z,6.10
2022-08-06T03:23:26.891Z,5.97
2022-08-06T03:26:35.720Z,6.23
2022-08-06T03:29:46.268Z,6.07
2022-08-06T03:32:53.870Z,5.83
2022-08-06T03:36:03.938Z,6.17
2022-08-06T03:39:16.843Z,6.40
2022-08-06T03:42:32.908Z,9.43
2022-08-06T03:45:58.841Z,5.40
2022-08-06T03:49:10.692Z,6.00
2022-08-06T03:52:24.663Z,6.47
2022-08-06T03:55:36.958Z,6.20
2022-08-06T03:58:45.573Z,5.87
2022-08-06T04:01:54.944Z,6.07
2022-08-06T04:05:06.861Z,9.30
2022-08-06T04:08:15.001Z,5.93
2022-08-06T04:12:12.792Z,6.37
2022-08-06T04:14:52.467Z,6.53
2022-08-06T04:18:00.799Z,5.37
2022-08-06T04:23:04.420Z,6.03
2022-08-06T04:24:47.306Z,6.50
2022-08-06T04:27:57.693Z,6.27
2022-08-06T04:31:05.630Z,5.77
2022-08-06T04:34:13.756Z,6.43
2022-08-06T04:37:20.751Z,12.73
2022-08-06T04:40:35.420Z,5.83
2022-08-06T04:43:52.929Z,6.67
2022-08-06T04:47:02.918Z,6.13
2022-08-06T04:50:11.139Z,7.47
2022-08-06T04:53:42.781Z,7.17
2022-08-06T04:56:50.008Z,6.87
2022-08-06T04:59:57.994Z,8.83
2022-08-06T05:03:04.644Z,7.63
2022-08-06T05:06:16.060Z,8.80
2022-08-06T05:09:42.144Z,14.77
2022-08-06T05:12:56.237Z,8.43
2022-08-06T05:16:07.980Z,8.60
2022-08-06T05:19:24.034Z,8.60
2022-08-06T05:22:52.264Z,8.07
2022-08-06T05:26:00.801Z,8.20
2022-08-06T05:29:08.191Z,8.43
2022-08-06T05:32:24.896Z,14.00
2022-08-06T05:35:40.248Z,7.23
2022-08-06T05:38:59.502Z,7.83
2022-08-06T05:42:06.390Z,7.87
2022-08-06T05:45:14.891Z,7.73
2022-08-06T05:48:29.061Z,7.60
2022-08-06T05:51:43.590Z,7.53
2022-08-06T05:55:11.338Z,7.63
2022-08-06T05:58:29.498Z,8.93
2022-08-06T06:01:37.918Z,7.73
2022-08-06T06:06:05.116Z,6.77
2022-08-06T06:08:18.374Z,6.90
2022-08-06T06:11:54.675Z,6.30
2022-08-06T06:16:00.198Z,6.50
2022-08-06T06:18:47.721Z,5.50
2022-08-06T06:22:12.927Z,6.33
2022-08-06T06:25:28.095Z,6.23
2022-08-06T06:28:47.211Z,6.83
2022-08-06T06:32:07.163Z,12.30
2022-08-06T06:35:24.884Z,6.20
2022-08-06T06:38:46.859Z,5.83
2022-08-06T06:42:06.410Z,5.33
2022-08-06T06:46:06.006Z,6.10
2022-08-06T06:48:48.792Z,5.73
2022-08-06T06:52:09.057Z,6.23
2022-08-06T06:55:27.177Z,5.97
2022-08-06T06:58:57.854Z,5.83
2022-08-06T07:02:23.709Z,6.20
2022-08-06T07:06:05.410Z,5.73
2022-08-06T07:09:00.269Z,8.70
2022-08-06T07:12:25.750Z,5.87
2022-08-06T07:15:43.047Z,7.83
2022-08-06T07:18:53.384Z,4.83
2022-08-06T07:22:00.987Z,5.20
2022-08-06T07:25:16.106Z,7.20
2022-08-06T07:28:29.092Z,6.10
2022-08-06T07:31:36.200Z,13.85
2022-08-06T07:34:43.717Z,15.30
2022-08-06T07:37:55.520Z,14.53
2022-08-06T07:41:08.908Z,5.53
2022-08-06T07:44:17.838Z,4.43
2022-08-06T07:47:41.204Z,4.80
2022-08-06T07:50:57.327Z,4.30
2022-08-06T07:54:09.454Z,4.18
2022-08-06T07:57:25.399Z,4.78
2022-08-06T08:00:38.683Z,5.13
2022-08-06T08:04:03.167Z,4.70
2022-08-06T08:07:37.885Z,4.65
2022-08-06T08:10:59.781Z,4.85
2022-08-06T08:14:07.289Z,4.82
2022-08-06T08:17:16.217Z,4.88
2022-08-06T08:20:22.503Z,3.97
2022-08-06T08:23:34.096Z,3.22
2022-08-06T08:27:04.494Z,3.40
2022-08-06T08:30:14.769Z,3.47
2022-08-06T08:33:23.199Z,3.47
2022-08-06T08:36:33.380Z,3.45
2022-08-06T08:39:43.802Z,2.92
2022-08-06T08:42:55.093Z,3.15
2022-08-06T08:46:04.881Z,3.55
2022-08-06T08:49:23.013Z,3.42
2022-08-06T08:52:35.878Z,3.30
2022-08-06T08:57:10.697Z,3.20
2022-08-06T08:59:58.972Z,4.22
2022-08-06T09:02:36.227Z,6.60
2022-08-06T09:05:47.666Z,11.45
2022-08-06T09:09:03.341Z,3.50
2022-08-06T09:12:20.430Z,3.45
2022-08-06T09:15:40.642Z,3.40
2022-08-06T09:18:47.618Z,4.80
2022-08-06T09:21:56.094Z,3.25
2022-08-06T09:25:07.964Z,3.85
2022-08-06T09:28:31.074Z,3.67
2022-08-06T09:31:44.468Z,3.80
2022-08-06T09:34:50.975Z,3.95
2022-08-06T09:38:06.575Z,3.40
2022-08-06T09:41:15.293Z,3.83
2022-08-06T09:44:35.250Z,5.95
2022-08-06T09:47:57.694Z,3.85
2022-08-06T09:51:06.107Z,3.90
2022-08-06T09:54:25.490Z,3.80
2022-08-06T09:57:44.717Z,3.22
2022-08-06T10:00:52.967Z,3.88
2022-08-06T10:04:02.290Z,3.85
2022-08-06T10:07:17.273Z,16.95
2022-08-06T10:10:49.555Z,16.92
2022-08-06T10:13:56.227Z,3.20
2022-08-06T10:17:09.146Z,3.55
2022-08-06T10:20:18.573Z,3.80
2022-08-06T10:23:26.663Z,3.85
2022-08-06T10:26:35.809Z,4.53
2022-08-06T10:29:43.766Z,4.20
2022-08-06T10:33:02.520Z,4.80
2022-08-06T10:36:11.920Z,4.55
2022-08-06T10:40:10.132Z,4.07
2022-08-06T10:42:54.852Z,4.07
2022-08-06T10:46:02.095Z,3.80
2022-08-06T10:50:30.011Z,4.07
2022-08-06T10:52:40.063Z,18.00
2022-08-06T10:55:47.172Z,16.92
2022-08-06T10:58:56.521Z,5.72
2022-08-06T11:02:17.426Z,8.65
2022-08-06T11:05:29.311Z,3.97
2022-08-06T11:09:10.865Z,3.88
2022-08-06T11:12:33.511Z,4.03
2022-08-06T11:15:43.020Z,3.88
2022-08-06T11:19:07.269Z,3.92
2022-08-06T11:22:37.581Z,3.60
2022-08-06T11:25:46.135Z,3.85
2022-08-06T11:29:02.531Z,4.22
2022-08-06T11:32:45.580Z,4.15
2022-08-06T11:35:54.039Z,4.30
2022-08-06T11:39:16.802Z,4.18
2022-08-06T11:42:50.580Z,4.22
2022-08-06T11:46:31.568Z,4.30
2022-08-06T11:49:46.614Z,5.72
2022-08-06T11:52:53.531Z,10.88
2022-08-06T11:56:10.094Z,5.70
2022-08-06T11:59:17.571Z,3.90
2022-08-06T12:03:03.292Z,4.20
2022-08-06T12:06:26.379Z,4.00
2022-08-06T12:09:39.697Z,4.00
2022-08-06T12:12:48.013Z,4.20
2022-08-06T12:16:10.522Z,4.00
2022-08-06T12:19:19.034Z,3.80
2022-08-06T12:22:29.457Z,3.78
2022-08-06T12:25:37.798Z,5.07
2022-08-06T12:28:44.908Z,5.38
2022-08-06T12:31:51.509Z,3.80
2022-08-06T12:35:00.086Z,4.47
2022-08-06T12:38:12.775Z,3.97
2022-08-06T12:41:20.582Z,4.90
2022-08-06T12:44:57.661Z,8.88
2022-08-06T12:48:11.631Z,5.07
2022-08-06T12:51:18.416Z,4.88
2022-08-06T12:54:31.189Z,5.07
2022-08-06T12:57:59.154Z,5.15
2022-08-06T13:01:06.969Z,4.25
2022-08-06T13:04:16.327Z,4.38
2022-08-06T13:07:24.525Z,3.80
2022-08-06T13:10:52.159Z,4.55
2022-08-06T13:14:15.372Z,5.25
2022-08-06T13:17:41.438Z,3.88
2022-08-06T13:20:52.276Z,4.38
2022-08-06T13:24:01.331Z,3.70
2022-08-06T13:27:11.144Z,4.13
2022-08-06T13:30:34.278Z,3.90
2022-08-06T13:34:04.247Z,11.68
2022-08-06T13:37:15.886Z,5.80
2022-08-06T13:40:38.144Z,6.13
2022-08-06T13:43:53.699Z,4.40
2022-08-06T13:47:02.520Z,4.63
2022-08-06T13:50:19.691Z,4.35
2022-08-06T13:53:40.609Z,4.10
2022-08-06T13:56:56.321Z,4.00
2022-08-06T14:00:05.247Z,4.68
2022-08-06T14:03:13.777Z,16.02
2022-08-06T14:06:20.519Z,4.13
2022-08-06T14:09:41.174Z,4.68
2022-08-06T14:13:16.161Z,7.32
2022-08-06T14:16:24.374Z,13.95
2022-08-06T14:20:10.075Z,14.48
2022-08-06T14:22:58.289Z,14.93
2022-08-06T14:26:08.552Z,23.30
2022-08-06T14:30:29.358Z,26.73
2022-08-06T14:32:48.016Z,8.15
2022-08-06T14:35:54.719Z,6.65
2022-08-06T14:39:12.376Z,4.30
2022-08-06T14:43:05.188Z,4.05
2022-08-06T14:46:11.078Z,3.90
2022-08-06T14:49:18.793Z,4.38
2022-08-06T14:52:25.498Z,6.60
2022-08-06T14:55:31.964Z,17.15
2022-08-06T14:58:38.495Z,14.95
2022-08-06T15:01:46.602Z,17.48
2022-08-06T15:04:54.630Z,15.60
2022-08-06T15:08:01.957Z,17.45
2022-08-06T15:11:18.071Z,17.23
2022-08-06T15:14:24.931Z,17.50
2022-08-06T15:18:04.155Z,17.45
2022-08-06T15:21:00.559Z,17.83
2022-08-06T15:24:07.663Z,15.73
2022-08-06T15:27:27.483Z,4.10
2022-08-06T15:30:35.020Z,4.20
2022-08-06T15:33:41.516Z,10.70
2022-08-06T15:37:01.502Z,11.02
2022-08-06T15:40:12.399Z,10.25
2022-08-06T15:43:23.285Z,10.50
2022-08-06T15:46:29.978Z,11.20
2022-08-06T15:50:01.008Z,3.95
2022-08-06T15:53:22.815Z,7.53
2022-08-06T15:56:38.537Z,10.40
2022-08-06T15:59:52.852Z,13.90
2022-08-06T16:02:59.180Z,13.70
2022-08-06T16:06:25.534Z,15.18
2022-08-06T16:10:01.578Z,13.95
2022-08-06T16:13:03.786Z,14.60
2022-08-06T16:16:11.435Z,14.68
2022-08-06T16:19:22.317Z,14.27
2022-08-06T16:22:28.704Z,14.38
2022-08-06T16:25:40.670Z,13.77
2022-08-06T16:29:04.080Z,13.57
2022-08-06T16:32:13.648Z,12.93
2022-08-06T16:35:22.279Z,12.10
2022-08-06T16:38:31.222Z,13.40
2022-08-06T16:41:58.592Z,14.25
2022-08-06T16:48:32.933Z,11.95
2022-08-06T16:55:08.100Z,12.10
2022-08-06T16:58:16.589Z,11.98
2022-08-06T17:02:21.304Z,5.30
2022-08-06T17:05:10.550Z,12.00
2022-08-06T17:08:23.800Z,12.55
2022-08-06T17:11:47.536Z,12.02
2022-08-06T17:14:59.742Z,10.00
2022-08-06T17:18:12.676Z,11.88
2022-08-06T17:21:52.925Z,5.32
2022-08-06T17:24:59.917Z,14.02
2022-08-06T17:28:06.626Z,13.15
2022-08-06T17:31:57.575Z,15.85
2022-08-06T17:34:44.163Z,17.20
2022-08-06T17:37:54.523Z,15.43
2022-08-06T17:41:00.573Z,18.48
2022-08-06T17:42:29.493Z,12.77
2022-08-06T17:44:06.916Z,17.30
2022-08-06T17:47:19.560Z,7.00
2022-08-06T17:50:41.987Z,9.98
2022-08-06T17:53:52.455Z,16.55
2022-08-06T17:57:01.632Z,15.53
2022-08-06T18:03:51.211Z,14.73
2022-08-06T18:06:58.479Z,21.00
2022-08-06T18:10:26.970Z,19.97
2022-08-06T18:13:53.324Z,18.27
2022-08-06T18:17:00.623Z,16.33
2022-08-06T18:20:10.060Z,20.40
2022-08-06T18:23:20.910Z,21.60
2022-08-06T18:26:30.666Z,17.83
2022-08-06T18:29:59.129Z,16.53
2022-08-06T18:33:08.017Z,17.53
2022-08-06T18:36:16.680Z,15.97
2022-08-06T18:39:23.118Z,16.57
2022-08-06T18:42:29.419Z,13.83
2022-08-06T18:45:36.962Z,11.17
2022-08-06T18:48:47.085Z,9.30
2022-08-06T18:51:57.651Z,9.60
2022-08-06T18:55:04.690Z,8.50
2022-08-06T18:58:14.897Z,6.63
2022-08-06T19:01:21.902Z,6.00
2022-08-06T19:04:30.040Z,6.20
2022-08-06T19:07:40.473Z,7.20
2022-08-06T19:11:00.938Z,10.00
2022-08-06T19:14:18.312Z,7.97
2022-08-06T19:18:10.100Z,8.40
2022-08-06T19:20:53.335Z,7.30
2022-08-06T19:24:03.264Z,8.20
2022-08-06T19:27:10.583Z,7.67
2022-08-06T19:30:35.811Z,6.60
2022-08-06T19:33:43.117Z,7.77
2022-08-06T19:36:51.646Z,7.37
2022-08-06T19:40:12.871Z,7.40
2022-08-06T19:44:24.882Z,6.93
2022-08-06T19:46:56.467Z,4.10
2022-08-06T19:50:03.670Z,4.80
2022-08-06T19:53:12.855Z,5.53
2022-08-06T19:56:20.810Z,3.93
2022-08-06T20:00:54.765Z,4.17
2022-08-06T20:02:54.898Z,4.47
2022-08-06T20:06:20.685Z,4.53
2022-08-06T20:09:42.131Z,7.60
2022-08-06T20:12:57.797Z,7.57
2022-08-06T20:16:05.809Z,5.20
2022-08-06T20:19:16.178Z,5.43
2022-08-06T20:22:23.543Z,5.00
2022-08-06T20:25:40.698Z,6.43
2022-08-06T20:29:10.243Z,6.30
2022-08-06T20:32:24.807Z,6.10
2022-08-06T20:35:32.640Z,4.47
2022-08-06T20:38:44.361Z,5.10
2022-08-06T20:42:02.140Z,4.13
2022-08-06T20:45:21.159Z,4.70
2022-08-06T20:48:38.974Z,5.03
2022-08-06T20:51:45.879Z,4.80
2022-08-06T20:54:58.443Z,6.23
2022-08-06T20:58:04.927Z,7.77
2022-08-06T21:01:12.991Z,5.37
2022-08-06T21:05:14.700Z,4.43
2022-08-06T21:07:46.287Z,6.07
2022-08-06T21:11:00.499Z,6.97
2022-08-06T21:14:10.668Z,8.50
2022-08-06T21:17:22.213Z,8.03
2022-08-06T21:20:28.622Z,8.10
2022-08-06T21:23:55.835Z,8.13
2022-08-06T21:27:05.491Z,8.37
2022-08-06T21:30:16.887Z,9.47
2022-08-06T21:33:42.934Z,9.60
2022-08-06T21:37:01.811Z,6.40
2022-08-06T21:40:10.110Z,8.10
2022-08-06T21:43:17.336Z,8.40
2022-08-06T21:46:34.151Z,7.63
2022-08-06T21:50:01.052Z,6.53
2022-08-06T21:53:52.932Z,7.30
2022-08-06T21:56:45.285Z,7.40
2022-08-06T21:59:53.360Z,6.80
2022-08-06T22:03:00.047Z,4.70
2022-08-06T22:06:22.281Z,4.97
2022-08-06T22:09:38.701Z,6.23
2022-08-06T22:13:11.832Z,6.40
2022-08-06T22:16:15.844Z,6.20
2022-08-06T22:19:33.527Z,4.73
2022-08-06T22:22:42.198Z,5.93
2022-08-06T22:25:50.012Z,5.13
2022-08-06T22:28:56.953Z,6.67
2022-08-06T22:32:04.716Z,5.00
2022-08-06T22:35:12.504Z,5.20
2022-08-06T22:38:23.854Z,7.33
2022-08-06T22:41:42.831Z,4.70
2022-08-06T22:45:47.431Z,5.40
2022-08-06T22:48:28.460Z,5.03
2022-08-06T22:51:45.761Z,5.80
2022-08-06T22:54:59.718Z,7.87
2022-08-06T22:59:05.060Z,7.07
2022-08-06T23:02:08.055Z,5.03
2022-08-06T23:05:00.494Z,4.90
2022-08-06T23:08:06.923Z,5.50
2022-08-06T23:11:20.853Z,5.07
2022-08-06T23:14:27.399Z,4.93
2022-08-06T23:17:40.245Z,5.30
2022-08-06T23:21:21.993Z,4.40
2022-08-06T23:24:32.826Z,5.63
2022-08-06T23:27:46.354Z,4.60
2022-08-06T23:30:53.671Z,4.57
2022-08-06T23:34:00.624Z,6.67
2022-08-06T23:37:10.470Z,4.27
2022-08-06T23:40:17.834Z,4.13
2022-08-06T23:43:30.707Z,5.00
2022-08-06T23:46:41.209Z,5.47
2022-08-06T23:49:57.477Z,5.90
2022-08-06T23:53:06.438Z,5.47
2022-08-06T23:56:14.644Z,5.57
2022-08-06T23:59:44.773Z,5.63
